sensor_id;sensor_type;location;lat;lon;timestamp;P1;durP1;ratioP1;P2;durP2;ratioP2
39694;SDS011;25367;-35.352;149.036;2022-11-24T00:00:21;4.40;;;0.30;;
39694;SDS011;25367;-35.352;149.036;2022-11-24T00:02:50;4.15;;;0.65;;
39694;SDS011;25367;-35.352;149.036;2022-11-24T00:05:21;1.92;;;0.52;;
39694;SDS011;25367;-35.352;149.036;2022-11-24T00:07:51;3.22;;;0.40;;
39694;SDS011;25367;-35.352;149.036;2022-11-24T09:28:27;10.18;;;4.38;;
39694;SDS011;25367;-35.352;149.036;2022-11-24T09:30:59;9.68;;;4.05;;
39694;SDS011;25367;-35.352;149.036;2022-11-24T09:33:29;9.00;;;4.20;;
39694;SDS011;25367;-35.352;149.036;2022-11-24T09:35:59;8.07;;;3.88;;
39694;SDS011;25367;-35.352;149.036;2022-11-24T09:38:29;9.18;;;4.22;;
39694;SDS011;25367;-35.352;149.036;2022-11-24T09:41:06;8.63;;;4.65;;
39694;SDS011;25367;-35.352;149.036;2022-11-24T09:44:25;8.88;;;4.10;;
39694;SDS011;25367;-35.352;149.036;2022-11-24T09:47:33;8.43;;;4.00;;
39694;SDS011;25367;-35.352;149.036;2022-11-24T09:50:12;8.75;;;3.60;;
39694;SDS011;25367;-35.352;149.036;2022-11-24T09:52:46;8.27;;;4.05;;
39694;SDS011;25367;-35.352;149.036;2022-11-24T09:55:24;6.22;;;3.20;;
39694;SDS011;25367;-35.352;149.036;2022-11-24T09:58:13;6.18;;;3.28;;
39694;SDS011;25367;-35.352;149.036;2022-11-24T10:01:00;7.50;;;3.45;;
39694;SDS011;25367;-35.352;149.036;2022-11-24T10:03:32;6.75;;;3.13;;
39694;SDS011;25367;-35.352;149.036;2022-11-24T10:06:19;6.90;;;3.00;;
39694;SDS011;25367;-35.352;149.036;2022-11-24T10:09:02;13.68;;;3.33;;
39694;SDS011;25367;-35.352;149.036;2022-11-24T10:11:51;7.95;;;2.92;;
39694;SDS011;25367;-35.352;149.036;2022-11-24T10:14:34;11.30;;;3.33;;
39694;SDS011;25367;-35.352;149.036;2022-11-24T10:17:18;16.15;;;4.10;;
39694;SDS011;25367;-35.352;149.036;2022-11-24T10:19:56;16.05;;;3.80;;
39694;SDS011;25367;-35.352;149.036;2022-11-24T10:22:38;6.90;;;3.03;;
39694;SDS011;25367;-35.352;149.036;2022-11-24T10:25:12;15.18;;;2.95;;
39694;SDS011;25367;-35.352;149.036;2022-11-24T10:27:48;11.88;;;3.50;;
39694;SDS011;25367;-35.352;149.036;2022-11-24T10:30:22;7.00;;;2.30;;
39694;SDS011;25367;-35.352;149.036;2022-11-24T10:32:56;10.95;;;2.70;;
39694;SDS011;25367;-35.352;149.036;2022-11-24T10:35:28;6.90;;;2.65;;
39694;SDS011;25367;-35.352;149.036;2022-11-24T10:38:05;8.40;;;2.83;;
39694;SDS011;25367;-35.352;149.036;2022-11-24T10:40:41;11.65;;;2.70;;
39694;SDS011;25367;-35.352;149.036;2022-11-24T10:43:14;8.95;;;2.85;;
39694;SDS011;25367;-35.352;149.036;2022-11-24T10:45:43;14.80;;;2.72;;
39694;SDS011;25367;-35.352;149.036;2022-11-24T10:48:21;9.20;;;2.63;;
39694;SDS011;25367;-35.352;149.036;2022-11-24T10:50:55;5.57;;;2.53;;
39694;SDS011;25367;-35.352;149.036;2022-11-24T10:53:33;8.52;;;2.30;;
39694;SDS011;25367;-35.352;149.036;2022-11-24T10:56:08;12.43;;;2.60;;
39694;SDS011;25367;-35.352;149.036;2022-11-24T10:58:38;12.15;;;2.83;;
39694;SDS011;25367;-35.352;149.036;2022-11-24T11:01:25;8.30;;;2.85;;
39694;SDS011;25367;-35.352;149.036;2022-11-24T11:04:02;7.45;;;2.28;;
39694;SDS011;25367;-35.352;149.036;2022-11-24T11:06:47;10.23;;;2.85;;
39694;SDS011;25367;-35.352;149.036;2022-11-24T11:09:17;5.75;;;2.53;;
39694;SDS011;25367;-35.352;149.036;2022-11-24T11:11:48;9.70;;;2.35;;
39694;SDS011;25367;-35.352;149.036;2022-11-24T11:14:28;13.67;;;2.60;;
39694;SDS011;25367;-35.352;149.036;2022-11-24T11:16:59;5.82;;;2.15;;
39694;SDS011;25367;-35.352;149.036;2022-11-24T11:19:37;10.57;;;2.55;;
39694;SDS011;25367;-35.352;149.036;2022-11-24T11:22:12;4.53;;;1.77;;
39694;SDS011;25367;-35.352;149.036;2022-11-24T11:24:47;3.92;;;2.05;;
39694;SDS011;25367;-35.352;149.036;2022-11-24T11:27:35;4.53;;;1.88;;
39694;SDS011;25367;-35.352;149.036;2022-11-24T11:32:55;4.97;;;1.98;;
39694;SDS011;25367;-35.352;149.036;2022-11-24T11:35:31;5.63;;;2.20;;
39694;SDS011;25367;-35.352;149.036;2022-11-24T11:38:02;5.88;;;1.90;;
39694;SDS011;25367;-35.352;149.036;2022-11-24T11:40:33;5.20;;;2.00;;
39694;SDS011;25367;-35.352;149.036;2022-11-24T11:43:03;8.35;;;2.22;;
39694;SDS011;25367;-35.352;149.036;2022-11-24T11:45:42;4.28;;;1.80;;
39694;SDS011;25367;-35.352;149.036;2022-11-24T11:48:20;5.20;;;2.20;;
39694;SDS011;25367;-35.352;149.036;2022-11-24T11:50:57;5.45;;;2.05;;
39694;SDS011;25367;-35.352;149.036;2022-11-24T11:53:31;5.00;;;1.85;;
39694;SDS011;25367;-35.352;149.036;2022-11-24T11:56:08;3.35;;;1.55;;
39694;SDS011;25367;-35.352;149.036;2022-11-24T12:01:52;6.97;;;2.50;;
39694;SDS011;25367;-35.352;149.036;2022-11-24T12:04:43;5.28;;;2.13;;
39694;SDS011;25367;-35.352;149.036;2022-11-24T12:10:23;6.50;;;2.25;;
39694;SDS011;25367;-35.352;149.036;2022-11-24T12:13:03;6.40;;;2.20;;
39694;SDS011;25367;-35.352;149.036;2022-11-24T12:15:50;5.70;;;1.77;;
39694;SDS011;25367;-35.352;149.036;2022-11-24T12:18:24;5.22;;;2.00;;
39694;SDS011;25367;-35.352;149.036;2022-11-24T12:21:04;4.40;;;1.98;;
39694;SDS011;25367;-35.352;149.036;2022-11-24T12:23:47;5.70;;;2.03;;
39694;SDS011;25367;-35.352;149.036;2022-11-24T12:26:27;4.65;;;1.70;;
39694;SDS011;25367;-35.352;149.036;2022-11-24T12:29:08;5.47;;;2.00;;
39694;SDS011;25367;-35.352;149.036;2022-11-24T12:32:09;6.22;;;1.92;;
39694;SDS011;25367;-35.352;149.036;2022-11-24T12:34:49;9.57;;;2.42;;
39694;SDS011;25367;-35.352;149.036;2022-11-24T12:37:34;5.45;;;1.90;;
39694;SDS011;25367;-35.352;149.036;2022-11-24T12:40:13;4.18;;;2.20;;
39694;SDS011;25367;-35.352;149.036;2022-11-24T12:42:55;6.40;;;1.92;;
39694;SDS011;25367;-35.352;149.036;2022-11-24T12:45:33;3.47;;;1.77;;
39694;SDS011;25367;-35.352;149.036;2022-11-24T12:48:17;4.10;;;1.70;;
39694;SDS011;25367;-35.352;149.036;2022-11-24T12:50:58;4.88;;;1.85;;
39694;SDS011;25367;-35.352;149.036;2022-11-24T12:53:31;6.37;;;2.00;;
39694;SDS011;25367;-35.352;149.036;2022-11-24T12:56:04;4.50;;;1.60;;
39694;SDS011;25367;-35.352;149.036;2022-11-24T12:58:38;5.97;;;1.85;;
39694;SDS011;25367;-35.352;149.036;2022-11-24T13:01:12;3.75;;;1.42;;
39694;SDS011;25367;-35.352;149.036;2022-11-24T13:03:56;3.97;;;1.60;;
39694;SDS011;25367;-35.352;149.036;2022-11-24T13:06:36;3.22;;;1.38;;
39694;SDS011;25367;-35.352;149.036;2022-11-24T13:09:13;4.47;;;1.58;;
39694;SDS011;25367;-35.352;149.036;2022-11-24T13:11:43;4.43;;;1.50;;
39694;SDS011;25367;-35.352;149.036;2022-11-24T13:14:19;3.85;;;1.52;;
39694;SDS011;25367;-35.352;149.036;2022-11-24T13:16:50;5.10;;;1.95;;
39694;SDS011;25367;-35.352;149.036;2022-11-24T13:19:21;2.65;;;1.50;;
39694;SDS011;25367;-35.352;149.036;2022-11-24T13:22:02;5.65;;;1.98;;
39694;SDS011;25367;-35.352;149.036;2022-11-24T13:24:42;3.28;;;1.75;;
39694;SDS011;25367;-35.352;149.036;2022-11-24T13:33:29;4.85;;;2.00;;
39694;SDS011;25367;-35.352;149.036;2022-11-24T13:39:18;3.20;;;1.40;;
39694;SDS011;25367;-35.352;149.036;2022-11-24T13:42:06;4.35;;;1.48;;
39694;SDS011;25367;-35.352;149.036;2022-11-24T13:44:42;4.25;;;1.77;;
39694;SDS011;25367;-35.352;149.036;2022-11-24T13:47:29;4.45;;;2.00;;
39694;SDS011;25367;-35.352;149.036;2022-11-24T13:50:20;5.03;;;1.80;;
39694;SDS011;25367;-35.352;149.036;2022-11-24T13:53:07;3.72;;;1.65;;
39694;SDS011;25367;-35.352;149.036;2022-11-24T13:55:42;3.28;;;1.40;;
39694;SDS011;25367;-35.352;149.036;2022-11-24T13:58:26;3.70;;;1.67;;
39694;SDS011;25367;-35.352;149.036;2022-11-24T14:01:09;8.15;;;1.83;;
39694;SDS011;25367;-35.352;149.036;2022-11-24T14:03:56;5.68;;;2.00;;
39694;SDS011;25367;-35.352;149.036;2022-11-24T14:06:41;3.08;;;1.25;;
39694;SDS011;25367;-35.352;149.036;2022-11-24T14:09:17;3.45;;;1.40;;
39694;SDS011;25367;-35.352;149.036;2022-11-24T14:12:03;3.22;;;1.35;;
39694;SDS011;25367;-35.352;149.036;2022-11-24T14:14:39;4.65;;;1.55;;
39694;SDS011;25367;-35.352;149.036;2022-11-24T14:17:16;3.03;;;1.30;;
39694;SDS011;25367;-35.352;149.036;2022-11-24T14:19:47;3.78;;;1.48;;
39694;SDS011;25367;-35.352;149.036;2022-11-24T14:22:22;4.63;;;1.50;;
39694;SDS011;25367;-35.352;149.036;2022-11-24T14:24:54;2.40;;;1.30;;
39694;SDS011;25367;-35.352;149.036;2022-11-24T14:27:26;5.72;;;1.92;;
39694;SDS011;25367;-35.352;149.036;2022-11-24T14:29:57;2.67;;;1.30;;
39694;SDS011;25367;-35.352;149.036;2022-11-24T14:32:28;1.90;;;1.38;;
39694;SDS011;25367;-35.352;149.036;2022-11-24T14:34:57;2.88;;;1.33;;
39694;SDS011;25367;-35.352;149.036;2022-11-24T14:37:33;3.83;;;1.43;;
39694;SDS011;25367;-35.352;149.036;2022-11-24T14:40:03;4.63;;;1.80;;
39694;SDS011;25367;-35.352;149.036;2022-11-24T14:42:53;5.13;;;1.40;;
39694;SDS011;25367;-35.352;149.036;2022-11-24T14:45:23;2.45;;;1.35;;
39694;SDS011;25367;-35.352;149.036;2022-11-24T14:47:52;3.70;;;1.15;;
39694;SDS011;25367;-35.352;149.036;2022-11-24T14:50:21;2.35;;;1.00;;
39694;SDS011;25367;-35.352;149.036;2022-11-24T14:52:54;3.92;;;1.45;;
39694;SDS011;25367;-35.352;149.036;2022-11-24T14:55:26;3.28;;;1.50;;
39694;SDS011;25367;-35.352;149.036;2022-11-24T14:57:56;3.88;;;1.40;;
39694;SDS011;25367;-35.352;149.036;2022-11-24T15:00:27;2.92;;;1.35;;
39694;SDS011;25367;-35.352;149.036;2022-11-24T15:03:06;3.15;;;1.25;;
39694;SDS011;25367;-35.352;149.036;2022-11-24T15:05:52;4.10;;;1.23;;
39694;SDS011;25367;-35.352;149.036;2022-11-24T15:08:27;3.20;;;0.95;;
39694;SDS011;25367;-35.352;149.036;2022-11-24T15:11:00;2.15;;;1.05;;
39694;SDS011;25367;-35.352;149.036;2022-11-24T15:13:33;2.22;;;0.93;;
39694;SDS011;25367;-35.352;149.036;2022-11-24T15:16:05;2.40;;;1.13;;
39694;SDS011;25367;-35.352;149.036;2022-11-24T15:18:42;3.25;;;1.60;;
39694;SDS011;25367;-35.352;149.036;2022-11-24T15:21:13;2.33;;;1.45;;
39694;SDS011;25367;-35.352;149.036;2022-11-24T15:23:51;2.17;;;1.23;;
39694;SDS011;25367;-35.352;149.036;2022-11-24T15:26:33;3.30;;;0.93;;
39694;SDS011;25367;-35.352;149.036;2022-11-24T15:29:02;2.33;;;1.02;;
39694;SDS011;25367;-35.352;149.036;2022-11-24T15:31:32;3.13;;;1.33;;
39694;SDS011;25367;-35.352;149.036;2022-11-24T15:34:02;3.30;;;1.10;;
39694;SDS011;25367;-35.352;149.036;2022-11-24T15:36:31;2.75;;;1.30;;
39694;SDS011;25367;-35.352;149.036;2022-11-24T15:39:04;1.80;;;1.10;;
39694;SDS011;25367;-35.352;149.036;2022-11-24T15:41:33;1.23;;;0.93;;
39694;SDS011;25367;-35.352;149.036;2022-11-24T15:44:03;4.88;;;1.23;;
39694;SDS011;25367;-35.352;149.036;2022-11-24T15:46:34;3.35;;;1.10;;
39694;SDS011;25367;-35.352;149.036;2022-11-24T15:49:04;2.17;;;0.90;;
39694;SDS011;25367;-35.352;149.036;2022-11-24T15:51:34;2.72;;;1.20;;
39694;SDS011;25367;-35.352;149.036;2022-11-24T15:54:11;3.17;;;1.10;;
39694;SDS011;25367;-35.352;149.036;2022-11-24T15:56:42;2.67;;;0.80;;
39694;SDS011;25367;-35.352;149.036;2022-11-24T15:59:12;2.60;;;1.20;;
39694;SDS011;25367;-35.352;149.036;2022-11-24T16:01:42;1.10;;;0.80;;
39694;SDS011;25367;-35.352;149.036;2022-11-24T16:04:12;2.30;;;0.90;;
39694;SDS011;25367;-35.352;149.036;2022-11-24T16:06:41;2.50;;;1.00;;
39694;SDS011;25367;-35.352;149.036;2022-11-24T16:09:17;2.55;;;1.00;;
39694;SDS011;25367;-35.352;149.036;2022-11-24T16:11:47;2.13;;;0.90;;
39694;SDS011;25367;-35.352;149.036;2022-11-24T16:14:16;2.88;;;1.10;;
39694;SDS011;25367;-35.352;149.036;2022-11-24T16:16:46;2.67;;;1.35;;
39694;SDS011;25367;-35.352;149.036;2022-11-24T16:19:15;1.60;;;0.75;;
39694;SDS011;25367;-35.352;149.036;2022-11-24T16:21:46;1.63;;;1.00;;
39694;SDS011;25367;-35.352;149.036;2022-11-24T16:24:19;2.60;;;0.90;;
39694;SDS011;25367;-35.352;149.036;2022-11-24T16:26:48;2.90;;;1.17;;
39694;SDS011;25367;-35.352;149.036;2022-11-24T16:29:17;2.05;;;0.90;;
39694;SDS011;25367;-35.352;149.036;2022-11-24T16:31:47;1.55;;;0.70;;
39694;SDS011;25367;-35.352;149.036;2022-11-24T16:34:17;1.00;;;0.63;;
39694;SDS011;25367;-35.352;149.036;2022-11-24T16:36:47;4.38;;;1.02;;
39694;SDS011;25367;-35.352;149.036;2022-11-24T16:39:19;2.13;;;0.90;;
39694;SDS011;25367;-35.352;149.036;2022-11-24T16:41:49;2.58;;;1.10;;
39694;SDS011;25367;-35.352;149.036;2022-11-24T16:44:19;2.50;;;0.90;;
39694;SDS011;25367;-35.352;149.036;2022-11-24T16:46:48;1.10;;;0.60;;
39694;SDS011;25367;-35.352;149.036;2022-11-24T16:49:17;1.27;;;0.80;;
39694;SDS011;25367;-35.352;149.036;2022-11-24T16:51:47;1.08;;;0.73;;
39694;SDS011;25367;-35.352;149.036;2022-11-24T16:54:20;1.55;;;0.65;;
39694;SDS011;25367;-35.352;149.036;2022-11-24T16:56:49;1.38;;;0.82;;
39694;SDS011;25367;-35.352;149.036;2022-11-24T16:59:19;1.58;;;0.90;;
39694;SDS011;25367;-35.352;149.036;2022-11-24T17:01:49;2.80;;;1.00;;
39694;SDS011;25367;-35.352;149.036;2022-11-24T17:04:18;1.08;;;0.73;;
39694;SDS011;25367;-35.352;149.036;2022-11-24T17:06:47;1.58;;;0.85;;
39694;SDS011;25367;-35.352;149.036;2022-11-24T17:09:20;6.13;;;1.05;;
39694;SDS011;25367;-35.352;149.036;2022-11-24T17:11:50;2.72;;;0.73;;
39694;SDS011;25367;-35.352;149.036;2022-11-24T17:14:19;1.40;;;0.60;;
39694;SDS011;25367;-35.352;149.036;2022-11-24T17:16:49;1.13;;;0.60;;
39694;SDS011;25367;-35.352;149.036;2022-11-24T17:19:18;1.48;;;0.93;;
39694;SDS011;25367;-35.352;149.036;2022-11-24T17:21:48;1.58;;;0.70;;
39694;SDS011;25367;-35.352;149.036;2022-11-24T17:24:21;1.23;;;0.80;;
39694;SDS011;25367;-35.352;149.036;2022-11-24T17:26:51;0.93;;;0.77;;
39694;SDS011;25367;-35.352;149.036;2022-11-24T17:29:21;2.88;;;0.88;;
39694;SDS011;25367;-35.352;149.036;2022-11-24T17:31:50;1.30;;;0.70;;
39694;SDS011;25367;-35.352;149.036;2022-11-24T17:34:20;0.95;;;0.70;;
39694;SDS011;25367;-35.352;149.036;2022-11-24T17:36:49;1.92;;;0.85;;
39694;SDS011;25367;-35.352;149.036;2022-11-24T17:39:22;2.15;;;0.70;;
39694;SDS011;25367;-35.352;149.036;2022-11-24T17:41:51;2.13;;;0.87;;
39694;SDS011;25367;-35.352;149.036;2022-11-24T17:44:21;1.58;;;0.80;;
39694;SDS011;25367;-35.352;149.036;2022-11-24T17:46:51;3.50;;;1.00;;
39694;SDS011;25367;-35.352;149.036;2022-11-24T17:49:21;1.55;;;0.70;;
39694;SDS011;25367;-35.352;149.036;2022-11-24T17:51:50;1.65;;;0.50;;
39694;SDS011;25367;-35.352;149.036;2022-11-24T17:54:22;0.93;;;0.60;;
39694;SDS011;25367;-35.352;149.036;2022-11-24T17:56:52;1.33;;;0.70;;
39694;SDS011;25367;-35.352;149.036;2022-11-24T17:59:21;1.15;;;0.50;;
39694;SDS011;25367;-35.352;149.036;2022-11-24T18:01:51;1.83;;;0.80;;
39694;SDS011;25367;-35.352;149.036;2022-11-24T18:04:20;2.22;;;0.93;;
39694;SDS011;25367;-35.352;149.036;2022-11-24T18:06:49;1.75;;;0.73;;
39694;SDS011;25367;-35.352;149.036;2022-11-24T18:09:19;1.00;;;0.60;;
39694;SDS011;25367;-35.352;149.036;2022-11-24T18:11:51;2.28;;;0.93;;
39694;SDS011;25367;-35.352;149.036;2022-11-24T18:14:21;0.65;;;0.55;;
39694;SDS011;25367;-35.352;149.036;2022-11-24T18:16:51;0.93;;;0.60;;
39694;SDS011;25367;-35.352;149.036;2022-11-24T18:19:20;1.80;;;0.70;;
39694;SDS011;25367;-35.352;149.036;2022-11-24T18:21:50;1.42;;;0.65;;
39694;SDS011;25367;-35.352;149.036;2022-11-24T18:24:19;1.23;;;0.68;;
39694;SDS011;25367;-35.352;149.036;2022-11-24T18:26:51;0.77;;;0.50;;
39694;SDS011;25367;-35.352;149.036;2022-11-24T18:29:21;1.42;;;0.50;;
39694;SDS011;25367;-35.352;149.036;2022-11-24T18:31:50;1.00;;;0.57;;
39694;SDS011;25367;-35.352;149.036;2022-11-24T18:34:20;1.17;;;0.77;;
39694;SDS011;25367;-35.352;149.036;2022-11-24T18:36:50;2.53;;;0.93;;
39694;SDS011;25367;-35.352;149.036;2022-11-24T18:39:19;2.22;;;0.73;;
39694;SDS011;25367;-35.352;149.036;2022-11-24T18:41:51;1.37;;;0.47;;
39694;SDS011;25367;-35.352;149.036;2022-11-24T18:44:22;1.65;;;0.65;;
39694;SDS011;25367;-35.352;149.036;2022-11-24T18:46:51;0.40;;;0.30;;
39694;SDS011;25367;-35.352;149.036;2022-11-24T18:49:21;0.95;;;0.60;;
39694;SDS011;25367;-35.352;149.036;2022-11-24T18:51:50;0.50;;;0.40;;
39694;SDS011;25367;-35.352;149.036;2022-11-24T18:54:19;0.80;;;0.50;;
39694;SDS011;25367;-35.352;149.036;2022-11-24T18:56:52;1.40;;;0.50;;
39694;SDS011;25367;-35.352;149.036;2022-11-24T18:59:22;1.30;;;0.50;;
39694;SDS011;25367;-35.352;149.036;2022-11-24T19:01:51;1.40;;;0.63;;
39694;SDS011;25367;-35.352;149.036;2022-11-24T19:04:21;1.30;;;0.57;;
39694;SDS011;25367;-35.352;149.036;2022-11-24T19:06:50;0.93;;;0.77;;
39694;SDS011;25367;-35.352;149.036;2022-11-24T19:09:20;1.35;;;0.50;;
39694;SDS011;25367;-35.352;149.036;2022-11-24T21:01:26;11.75;;;1.92;;
39694;SDS011;25367;-35.352;149.036;2022-11-24T21:03:57;9.90;;;1.50;;
39694;SDS011;25367;-35.352;149.036;2022-11-24T21:06:27;6.18;;;1.35;;
39694;SDS011;25367;-35.352;149.036;2022-11-24T21:08:57;10.73;;;1.50;;
39694;SDS011;25367;-35.352;149.036;2022-11-24T21:11:26;6.50;;;1.25;;
39694;SDS011;25367;-35.352;149.036;2022-11-24T21:13:56;3.80;;;1.33;;
39694;SDS011;25367;-35.352;149.036;2022-11-24T21:16:30;11.77;;;1.67;;
39694;SDS011;25367;-35.352;149.036;2022-11-24T21:19:00;13.30;;;1.25;;
39694;SDS011;25367;-35.352;149.036;2022-11-24T21:21:31;9.38;;;1.85;;
39694;SDS011;25367;-35.352;149.036;2022-11-24T21:24:02;14.45;;;1.60;;
39694;SDS011;25367;-35.352;149.036;2022-11-24T21:26:33;13.00;;;1.70;;
39694;SDS011;25367;-35.352;149.036;2022-11-24T21:29:03;12.93;;;1.60;;
39694;SDS011;25367;-35.352;149.036;2022-11-24T21:31:36;10.48;;;2.28;;
39694;SDS011;25367;-35.352;149.036;2022-11-24T21:34:06;15.63;;;2.22;;
39694;SDS011;25367;-35.352;149.036;2022-11-24T21:36:36;16.58;;;1.90;;
39694;SDS011;25367;-35.352;149.036;2022-11-24T21:39:06;9.00;;;1.90;;
39694;SDS011;25367;-35.352;149.036;2022-11-24T21:41:37;19.38;;;2.08;;
39694;SDS011;25367;-35.352;149.036;2022-11-24T21:44:06;10.75;;;2.20;;
39694;SDS011;25367;-35.352;149.036;2022-11-24T21:46:39;13.52;;;2.25;;
39694;SDS011;25367;-35.352;149.036;2022-11-24T21:49:09;15.43;;;1.98;;
39694;SDS011;25367;-35.352;149.036;2022-11-24T21:51:39;11.75;;;1.75;;
39694;SDS011;25367;-35.352;149.036;2022-11-24T21:54:08;7.88;;;1.88;;
39694;SDS011;25367;-35.352;149.036;2022-11-24T21:56:37;13.90;;;2.00;;
39694;SDS011;25367;-35.352;149.036;2022-11-24T21:59:07;18.13;;;2.53;;
39694;SDS011;25367;-35.352;149.036;2022-11-24T22:01:36;5.35;;;1.52;;
39694;SDS011;25367;-35.352;149.036;2022-11-24T22:04:08;9.55;;;1.80;;
39694;SDS011;25367;-35.352;149.036;2022-11-24T22:06:37;12.95;;;1.52;;
39694;SDS011;25367;-35.352;149.036;2022-11-24T22:09:07;7.70;;;1.55;;
39694;SDS011;25367;-35.352;149.036;2022-11-24T22:11:38;9.70;;;1.80;;
39694;SDS011;25367;-35.352;149.036;2022-11-24T22:14:08;7.60;;;1.50;;
39694;SDS011;25367;-35.352;149.036;2022-11-24T22:16:39;7.78;;;1.80;;
39694;SDS011;25367;-35.352;149.036;2022-11-24T22:19:09;13.50;;;2.08;;
39694;SDS011;25367;-35.352;149.036;2022-11-24T22:21:38;11.10;;;2.10;;
39694;SDS011;25367;-35.352;149.036;2022-11-24T22:24:08;12.55;;;2.00;;
39694;SDS011;25367;-35.352;149.036;2022-11-24T22:26:37;6.32;;;1.75;;
39694;SDS011;25367;-35.352;149.036;2022-11-24T22:29:07;5.05;;;1.15;;
39694;SDS011;25367;-35.352;149.036;2022-11-24T22:31:36;14.25;;;2.28;;
39694;SDS011;25367;-35.352;149.036;2022-11-24T22:34:08;8.88;;;1.98;;
39694;SDS011;25367;-35.352;149.036;2022-11-24T22:36:37;10.15;;;1.83;;
39694;SDS011;25367;-35.352;149.036;2022-11-24T22:39:09;17.88;;;2.00;;
39694;SDS011;25367;-35.352;149.036;2022-11-24T22:41:39;22.58;;;2.80;;
39694;SDS011;25367;-35.352;149.036;2022-11-24T22:44:09;12.18;;;1.90;;
39694;SDS011;25367;-35.352;149.036;2022-11-24T22:46:40;10.18;;;1.35;;
39694;SDS011;25367;-35.352;149.036;2022-11-24T22:49:10;12.82;;;1.73;;
39694;SDS011;25367;-35.352;149.036;2022-11-24T22:51:39;6.78;;;1.40;;
39694;SDS011;25367;-35.352;149.036;2022-11-24T22:54:09;9.93;;;2.13;;
39694;SDS011;25367;-35.352;149.036;2022-11-24T22:56:40;14.93;;;1.65;;
39694;SDS011;25367;-35.352;149.036;2022-11-24T22:59:09;7.50;;;1.42;;
39694;SDS011;25367;-35.352;149.036;2022-11-24T23:01:40;8.65;;;1.10;;
39694;SDS011;25367;-35.352;149.036;2022-11-24T23:04:10;9.05;;;1.50;;
39694;SDS011;25367;-35.352;149.036;2022-11-24T23:06:39;6.40;;;1.30;;
39694;SDS011;25367;-35.352;149.036;2022-11-24T23:09:09;6.13;;;1.45;;
39694;SDS011;25367;-35.352;149.036;2022-11-24T23:11:39;7.43;;;1.55;;
39694;SDS011;25367;-35.352;149.036;2022-11-24T23:14:11;4.38;;;0.98;;
39694;SDS011;25367;-35.352;149.036;2022-11-24T23:16:43;7.22;;;1.15;;
39694;SDS011;25367;-35.352;149.036;2022-11-24T23:19:13;2.15;;;1.00;;
39694;SDS011;25367;-35.352;149.036;2022-11-24T23:21:42;9.20;;;1.83;;
39694;SDS011;25367;-35.352;149.036;2022-11-24T23:24:12;5.97;;;1.30;;
39694;SDS011;25367;-35.352;149.036;2022-11-24T23:26:41;5.80;;;1.30;;
39694;SDS011;25367;-35.352;149.036;2022-11-24T23:29:11;9.45;;;1.42;;
39694;SDS011;25367;-35.352;149.036;2022-11-24T23:31:40;4.93;;;1.08;;
39694;SDS011;25367;-35.352;149.036;2022-11-24T23:34:12;4.18;;;0.85;;
39694;SDS011;25367;-35.352;149.036;2022-11-24T23:36:41;6.13;;;1.42;;
39694;SDS011;25367;-35.352;149.036;2022-11-24T23:39:11;5.00;;;1.27;;
39694;SDS011;25367;-35.352;149.036;2022-11-24T23:41:40;7.63;;;1.30;;
39694;SDS011;25367;-35.352;149.036;2022-11-24T23:44:10;10.10;;;1.55;;
39694;SDS011;25367;-35.352;149.036;2022-11-24T23:46:39;6.10;;;0.98;;
39694;SDS011;25367;-35.352;149.036;2022-11-24T23:49:11;3.42;;;0.90;;
39694;SDS011;25367;-35.352;149.036;2022-11-24T23:51:40;5.68;;;0.98;;
39694;SDS011;25367;-35.352;149.036;2022-11-24T23:54:10;6.07;;;1.35;;
39694;SDS011;25367;-35.352;149.036;2022-11-24T23:56:39;9.07;;;1.52;;
39694;SDS011;25367;-35.352;149.036;2022-11-24T23:59:09;3.42;;;1.08;;
